Aviation Digital Data Service (ADDS)

Output produced by TAFs form (0746 UTC 25 March 2017)
found at http://www.aviationweather.gov/adds/tafs/
 
METAR text: RJOT 250700Z 08007KT 9999 FEW030 SCT070 BKN090 08/M03 Q1017
Conditions at: RJOT (TAKAMATSU AIRPOR, JP) observed 0700 UTC 25 March 2017
Temperature: 8.0°C (46°F)
Dewpoint: -3.0°C (27°F) [RH = 46%]
Pressure (altimeter): 30.03 inches Hg (1017.0 mb)
Winds: from the E (80 degrees) at 8 MPH (7 knots; 3.6 m/s)
Visibility: 6 or more miles (10+ km)
Ceiling: 9000 feet AGL
Clouds: few clouds at 3000 feet AGL
scattered clouds at 7000 feet AGL
broken clouds at 9000 feet AGL
Weather: no significant weather observed at this time

Forecast for: RJOT (TAKAMATSU AIRPOR, JP)
Text: TAF RJOT 250505Z 2506/2612 15005KT 9999 FEW035 SCT070
Forecast period: 0600 UTC 25 March 2017 to 1200 UTC 26 March 2017
Forecast type: FROM: standard forecast or significant change
Winds: from the SSE (150 degrees) at 6 MPH (5 knots; 2.6 m/s)
Visibility: 6 or more miles (10+ km)
Clouds: few clouds at 3500 feet AGL
scattered clouds at 7000 feet AGL
Weather: no significant weather forecast for this period